Jamestown Regional Airport Jamestown US
ICAO: KJMS
IATA: JMS
Category: Medium
Scheduled Services: Yes

Elevation: 1500 ft
TransAlt. 18000 ft.

Airport Communications:
ASOS:118.425
MINNEAPOLIS CNTR:124.2
GRAND FORKS RDO:122.2
CTAF/UNICOM:123

KJMS Zoom In..

If you have problems with the map follow the link
https://www.worldairports.se/pages/airport.php?
ICAO=KJMS

Runways:

(A) RW 04 length 5750 ft width 75 ft
---- / hdg 37

(B) RW 13 length 6502 ft width 100 ft
---- / hdg 127

(C) RW 22 length 5750 ft width 75 ft
---- / hdg 217

(D) RW 31 length 6502 ft width 100 ft
ILS 109.30 / hdg 307

Location; KJMS
Day. 24 / Time. 10.56 Zulu
* Altimeter: 30.15
* Temperature: -01° c. -30.2°f.
* Wind from: 030° Speed 14 kn.
Dewpoint: -02° c.
Visibility: 10 Statute Miles.
Clouds: Overcast 600 ft.

KJMS 241056Z AUTO 03014KT 10SM OVC006 M01/M02 A3015 RMK AO2 SLP227 T10111017


Wind From 030°
Speed 14 kn.

 
 
jpsmedia.com for Web Design worldairports.se 2019   terms of use